sensor_id;sensor_type;location;lat;lon;timestamp;pressure;altitude;pressure_sealevel;temperature;humidity
33163;BME280;29282;45.656;11.302;2022-09-02T00:00:46;98494.69;;;24.66;54.70
33163;BME280;29282;45.656;11.302;2022-09-02T00:03:13;98502.94;;;24.63;54.81
33163;BME280;29282;45.656;11.302;2022-09-02T00:05:39;98506.16;;;24.65;54.69
33163;BME280;29282;45.656;11.302;2022-09-02T00:08:05;98491.22;;;24.99;52.81
33163;BME280;29282;45.656;11.302;2022-09-02T00:10:35;98494.34;;;24.94;54.00
33163;BME280;29282;45.656;11.302;2022-09-02T00:13:01;98498.44;;;24.77;54.24
33163;BME280;29282;45.656;11.302;2022-09-02T00:15:26;98492.41;;;24.72;54.70
33163;BME280;29282;45.656;11.302;2022-09-02T00:17:52;98485.56;;;24.66;54.74
33163;BME280;29282;45.656;11.302;2022-09-02T00:20:18;98489.88;;;24.63;54.71
33163;BME280;29282;45.656;11.302;2022-09-02T00:22:44;98483.94;;;24.61;55.08
33163;BME280;29282;45.656;11.302;2022-09-02T00:25:10;98484.41;;;24.93;52.80
33163;BME280;29282;45.656;11.302;2022-09-02T00:27:36;98482.06;;;24.95;53.82
33163;BME280;29282;45.656;11.302;2022-09-02T00:30:05;98475.09;;;24.78;54.43
33163;BME280;29282;45.656;11.302;2022-09-02T00:32:31;98478.94;;;24.70;54.49
33163;BME280;29282;45.656;11.302;2022-09-02T00:34:57;98481.22;;;24.65;54.85
33163;BME280;29282;45.656;11.302;2022-09-02T00:37:24;98477.22;;;24.62;54.79
33163;BME280;29282;45.656;11.302;2022-09-02T00:39:51;98475.63;;;24.61;54.89
33163;BME280;29282;45.656;11.302;2022-09-02T00:42:19;98470.78;;;24.81;53.67
33163;BME280;29282;45.656;11.302;2022-09-02T00:44:44;98471.81;;;24.99;53.69
33163;BME280;29282;45.656;11.302;2022-09-02T00:47:10;98471.59;;;24.81;54.40
33163;BME280;29282;45.656;11.302;2022-09-02T00:49:38;98482.13;;;24.72;54.46
33163;BME280;29282;45.656;11.302;2022-09-02T00:52:19;98480.84;;;24.66;54.65
33163;BME280;29282;45.656;11.302;2022-09-02T00:54:51;98481.97;;;24.61;54.77
33163;BME280;29282;45.656;11.302;2022-09-02T00:57:20;98479.53;;;24.60;54.99
33163;BME280;29282;45.656;11.302;2022-09-02T00:59:49;98472.03;;;24.83;53.67
33163;BME280;29282;45.656;11.302;2022-09-02T01:02:19;98472.97;;;24.95;53.82
33163;BME280;29282;45.656;11.302;2022-09-02T01:04:48;98477.06;;;24.78;54.32
33163;BME280;29282;45.656;11.302;2022-09-02T01:07:14;98483.66;;;24.70;54.73
33163;BME280;29282;45.656;11.302;2022-09-02T01:09:40;98481.22;;;24.65;54.98
33163;BME280;29282;45.656;11.302;2022-09-02T01:12:06;98472.06;;;24.60;55.08
33163;BME280;29282;45.656;11.302;2022-09-02T01:14:33;98472.41;;;24.59;54.91
33163;BME280;29282;45.656;11.302;2022-09-02T01:17:00;98474.84;;;24.87;53.32
33163;BME280;29282;45.656;11.302;2022-09-02T01:19:31;98474.09;;;24.90;53.86
33163;BME280;29282;45.656;11.302;2022-09-02T01:21:57;98473.06;;;24.75;54.17
33163;BME280;29282;45.656;11.302;2022-09-02T01:24:27;98472.16;;;24.68;54.62
33163;BME280;29282;45.656;11.302;2022-09-02T01:26:55;98471.66;;;24.62;54.98
33163;BME280;29282;45.656;11.302;2022-09-02T01:29:21;98472.41;;;24.59;54.84
33163;BME280;29282;45.656;11.302;2022-09-02T01:31:47;98474.38;;;24.58;55.03
33163;BME280;29282;45.656;11.302;2022-09-02T01:34:14;98473.28;;;24.90;53.11
33163;BME280;29282;45.656;11.302;2022-09-02T01:36:41;98474.88;;;24.91;53.91
33163;BME280;29282;45.656;11.302;2022-09-02T01:39:08;98471.47;;;24.74;54.27
33163;BME280;29282;45.656;11.302;2022-09-02T01:41:35;98465.00;;;24.67;54.71
33163;BME280;29282;45.656;11.302;2022-09-02T01:44:00;98465.34;;;24.61;54.67
33163;BME280;29282;45.656;11.302;2022-09-02T01:46:26;98459.75;;;24.58;54.72
33163;BME280;29282;45.656;11.302;2022-09-02T01:48:51;98457.31;;;24.56;54.91
33163;BME280;29282;45.656;11.302;2022-09-02T01:51:20;98453.03;;;24.85;53.50
33163;BME280;29282;45.656;11.302;2022-09-02T01:53:48;98457.50;;;24.94;53.68
33163;BME280;29282;45.656;11.302;2022-09-02T01:56:14;98452.88;;;24.75;54.36
33163;BME280;29282;45.656;11.302;2022-09-02T01:58:40;98453.13;;;24.66;54.72
33163;BME280;29282;45.656;11.302;2022-09-02T02:01:06;98463.75;;;24.60;54.64
33163;BME280;29282;45.656;11.302;2022-09-02T02:03:33;98462.50;;;24.58;54.91
33163;BME280;29282;45.656;11.302;2022-09-02T02:06:00;98454.94;;;24.55;54.97
33163;BME280;29282;45.656;11.302;2022-09-02T02:08:26;98450.66;;;24.84;53.18
33163;BME280;29282;45.656;11.302;2022-09-02T02:10:51;98444.00;;;24.92;53.59
33163;BME280;29282;45.656;11.302;2022-09-02T02:13:17;98442.59;;;24.75;54.24
33163;BME280;29282;45.656;11.302;2022-09-02T02:15:43;98446.00;;;24.65;54.38
33163;BME280;29282;45.656;11.302;2022-09-02T02:18:09;98437.19;;;24.59;54.51
33163;BME280;29282;45.656;11.302;2022-09-02T02:20:35;98441.53;;;24.57;54.66
33163;BME280;29282;45.656;11.302;2022-09-02T02:23:02;98432.00;;;24.54;54.74
33163;BME280;29282;45.656;11.302;2022-09-02T02:25:29;98434.38;;;24.82;53.29
33163;BME280;29282;45.656;11.302;2022-09-02T02:27:54;98430.91;;;24.89;53.71
33163;BME280;29282;45.656;11.302;2022-09-02T02:30:20;98436.59;;;24.73;54.21
33163;BME280;29282;45.656;11.302;2022-09-02T02:32:46;98438.88;;;24.64;54.40
33163;BME280;29282;45.656;11.302;2022-09-02T02:35:14;98424.53;;;24.58;54.67
33163;BME280;29282;45.656;11.302;2022-09-02T02:37:40;98425.28;;;24.55;54.98
33163;BME280;29282;45.656;11.302;2022-09-02T02:40:06;98424.81;;;24.53;54.97
33163;BME280;29282;45.656;11.302;2022-09-02T02:42:32;98428.78;;;24.79;53.48
33163;BME280;29282;45.656;11.302;2022-09-02T02:44:58;98424.63;;;24.92;53.56
33163;BME280;29282;45.656;11.302;2022-09-02T02:47:23;98417.66;;;24.75;54.21
33163;BME280;29282;45.656;11.302;2022-09-02T02:49:49;98419.47;;;24.64;54.39
33163;BME280;29282;45.656;11.302;2022-09-02T02:52:15;98419.00;;;24.58;54.47
33163;BME280;29282;45.656;11.302;2022-09-02T02:54:40;98421.72;;;24.55;54.89
33163;BME280;29282;45.656;11.302;2022-09-02T02:57:10;98415.72;;;24.53;55.00
33163;BME280;29282;45.656;11.302;2022-09-02T02:59:35;98408.06;;;24.69;53.81
33163;BME280;29282;45.656;11.302;2022-09-02T03:02:02;98412.31;;;24.90;53.13
33163;BME280;29282;45.656;11.302;2022-09-02T03:04:27;98420.41;;;24.75;54.51
33163;BME280;29282;45.656;11.302;2022-09-02T03:06:53;98411.16;;;24.64;54.29
33163;BME280;29282;45.656;11.302;2022-09-02T03:09:18;98414.25;;;24.59;54.61
33163;BME280;29282;45.656;11.302;2022-09-02T03:11:45;98404.28;;;24.54;54.70
33163;BME280;29282;45.656;11.302;2022-09-02T03:14:11;98403.06;;;24.52;55.18
33163;BME280;29282;45.656;11.302;2022-09-02T03:16:36;98414.94;;;24.52;54.99
33163;BME280;29282;45.656;11.302;2022-09-02T03:19:02;98407.50;;;24.87;53.08
33163;BME280;29282;45.656;11.302;2022-09-02T03:21:28;98407.84;;;24.81;54.10
33163;BME280;29282;45.656;11.302;2022-09-02T03:23:54;98397.72;;;24.66;54.19
33163;BME280;29282;45.656;11.302;2022-09-02T03:26:22;98402.38;;;24.58;54.31
33163;BME280;29282;45.656;11.302;2022-09-02T03:28:49;98407.84;;;24.55;54.76
33163;BME280;29282;45.656;11.302;2022-09-02T03:31:19;98403.06;;;24.52;54.97
33163;BME280;29282;45.656;11.302;2022-09-02T03:33:45;98409.78;;;24.51;54.92
33163;BME280;29282;45.656;11.302;2022-09-02T03:36:28;98397.06;;;24.76;53.14
33163;BME280;29282;45.656;11.302;2022-09-02T03:38:54;98401.97;;;24.87;53.52
33163;BME280;29282;45.656;11.302;2022-09-02T03:41:20;98397.78;;;24.70;54.29
33163;BME280;29282;45.656;11.302;2022-09-02T03:43:46;98402.81;;;24.60;54.70
33163;BME280;29282;45.656;11.302;2022-09-02T03:46:12;98401.53;;;24.54;54.54
33163;BME280;29282;45.656;11.302;2022-09-02T03:48:41;98403.84;;;24.52;54.69
33163;BME280;29282;45.656;11.302;2022-09-02T03:51:06;98397.09;;;24.50;54.80
33163;BME280;29282;45.656;11.302;2022-09-02T03:53:32;98395.34;;;24.65;53.65
33163;BME280;29282;45.656;11.302;2022-09-02T03:56:05;98395.25;;;24.88;53.05
33163;BME280;29282;45.656;11.302;2022-09-02T03:58:32;98405.34;;;24.73;54.50
33163;BME280;29282;45.656;11.302;2022-09-02T04:00:58;98399.66;;;24.62;54.42
33163;BME280;29282;45.656;11.302;2022-09-02T04:03:24;98400.34;;;24.55;54.59
33163;BME280;29282;45.656;11.302;2022-09-02T04:05:50;98404.25;;;24.51;54.68
33163;BME280;29282;45.656;11.302;2022-09-02T04:08:17;98399.84;;;24.50;54.91
33163;BME280;29282;45.656;11.302;2022-09-02T04:10:42;98403.06;;;24.52;54.42
33163;BME280;29282;45.656;11.302;2022-09-02T04:13:08;98398.81;;;24.88;52.67
33163;BME280;29282;45.656;11.302;2022-09-02T04:15:38;98398.69;;;24.77;54.14
33163;BME280;29282;45.656;11.302;2022-09-02T04:18:03;98401.63;;;24.61;54.57
33163;BME280;29282;45.656;11.302;2022-09-02T04:20:29;98399.16;;;24.56;54.63
33163;BME280;29282;45.656;11.302;2022-09-02T04:22:55;98408.59;;;24.52;54.88
33163;BME280;29282;45.656;11.302;2022-09-02T04:25:21;98407.38;;;24.49;55.02
33163;BME280;29282;45.656;11.302;2022-09-02T04:27:48;98410.88;;;24.46;55.06
33163;BME280;29282;45.656;11.302;2022-09-02T04:30:13;98413.66;;;24.73;53.43
33163;BME280;29282;45.656;11.302;2022-09-02T04:32:41;98413.00;;;24.83;53.43
33163;BME280;29282;45.656;11.302;2022-09-02T04:35:06;98415.13;;;24.67;54.25
33163;BME280;29282;45.656;11.302;2022-09-02T04:37:32;98417.41;;;24.57;54.37
33163;BME280;29282;45.656;11.302;2022-09-02T04:39:58;98416.91;;;24.52;54.50
33163;BME280;29282;45.656;11.302;2022-09-02T04:42:23;98418.84;;;24.48;54.92
33163;BME280;29282;45.656;11.302;2022-09-02T04:44:50;98414.44;;;24.47;55.00
33163;BME280;29282;45.656;11.302;2022-09-02T04:47:16;98415.63;;;24.46;55.22
33163;BME280;29282;45.656;11.302;2022-09-02T04:49:42;98421.59;;;24.74;53.39
33163;BME280;29282;45.656;11.302;2022-09-02T04:52:08;98419.94;;;24.70;53.86
33163;BME280;29282;45.656;11.302;2022-09-02T04:54:35;98420.06;;;24.50;54.43
33163;BME280;29282;45.656;11.302;2022-09-02T04:57:00;98422.34;;;24.45;54.55
33163;BME280;29282;45.656;11.302;2022-09-02T04:59:26;98419.53;;;24.41;54.94
33163;BME280;29282;45.656;11.302;2022-09-02T05:01:51;98413.91;;;24.37;55.21
33163;BME280;29282;45.656;11.302;2022-09-02T05:04:18;98419.78;;;24.36;54.98
33163;BME280;29282;45.656;11.302;2022-09-02T05:06:44;98420.16;;;24.34;54.95
33163;BME280;29282;45.656;11.302;2022-09-02T05:09:11;98421.03;;;24.38;54.72
33163;BME280;29282;45.656;11.302;2022-09-02T05:11:37;98411.53;;;24.63;52.95
33163;BME280;29282;45.656;11.302;2022-09-02T05:14:04;98420.56;;;24.59;54.10
33163;BME280;29282;45.656;11.302;2022-09-02T05:16:34;98421.91;;;24.43;54.23
33163;BME280;29282;45.656;11.302;2022-09-02T05:19:01;98429.31;;;24.38;54.31
33163;BME280;29282;45.656;11.302;2022-09-02T05:21:28;98429.28;;;24.35;54.32
33163;BME280;29282;45.656;11.302;2022-09-02T05:23:56;98421.72;;;24.32;54.52
33163;BME280;29282;45.656;11.302;2022-09-02T05:26:22;98429.22;;;24.31;54.81
33163;BME280;29282;45.656;11.302;2022-09-02T05:28:48;98431.53;;;24.29;54.61
33163;BME280;29282;45.656;11.302;2022-09-02T05:31:16;98431.53;;;24.29;54.66
33163;BME280;29282;45.656;11.302;2022-09-02T05:33:42;98437.16;;;24.56;52.99
33163;BME280;29282;45.656;11.302;2022-09-02T05:36:11;98438.06;;;24.64;53.40
33163;BME280;29282;45.656;11.302;2022-09-02T05:38:38;98440.56;;;24.46;53.73
33163;BME280;29282;45.656;11.302;2022-09-02T05:41:05;98440.50;;;24.42;53.88
33163;BME280;29282;45.656;11.302;2022-09-02T05:43:34;98433.69;;;24.39;53.83
33163;BME280;29282;45.656;11.302;2022-09-02T05:46:06;98436.06;;;24.37;54.03
33163;BME280;29282;45.656;11.302;2022-09-02T05:48:36;98436.00;;;24.34;54.36
33163;BME280;29282;45.656;11.302;2022-09-02T05:51:22;98434.75;;;24.31;54.41
33163;BME280;29282;45.656;11.302;2022-09-02T05:53:51;98436.72;;;24.31;54.29
33163;BME280;29282;45.656;11.302;2022-09-02T05:56:17;98443.19;;;24.38;53.65
33163;BME280;29282;45.656;11.302;2022-09-02T05:58:43;98444.91;;;24.47;52.98
33163;BME280;29282;45.656;11.302;2022-09-02T06:01:15;98444.66;;;24.32;53.97
33163;BME280;29282;45.656;11.302;2022-09-02T06:03:41;98445.38;;;24.29;54.09
33163;BME280;29282;45.656;11.302;2022-09-02T06:06:07;98450.13;;;24.29;54.41
33163;BME280;29282;45.656;11.302;2022-09-02T06:08:33;98454.44;;;24.26;54.09
33163;BME280;29282;45.656;11.302;2022-09-02T06:10:59;98450.06;;;24.25;54.03
33163;BME280;29282;45.656;11.302;2022-09-02T06:13:33;98447.66;;;24.24;54.42
33163;BME280;29282;45.656;11.302;2022-09-02T06:15:59;98445.28;;;24.22;54.22
33163;BME280;29282;45.656;11.302;2022-09-02T06:18:25;98449.63;;;24.23;54.54
33163;BME280;29282;45.656;11.302;2022-09-02T06:20:50;98445.66;;;24.21;54.22
33163;BME280;29282;45.656;11.302;2022-09-02T06:23:16;98443.34;;;24.03;53.75
33163;BME280;29282;45.656;11.302;2022-09-02T06:25:43;98446.75;;;23.93;53.44
33163;BME280;29282;45.656;11.302;2022-09-02T06:28:10;98450.38;;;23.97;53.64
33163;BME280;29282;45.656;11.302;2022-09-02T06:30:42;98453.63;;;24.03;53.26
33163;BME280;29282;45.656;11.302;2022-09-02T06:33:08;98458.50;;;24.09;53.52
33163;BME280;29282;45.656;11.302;2022-09-02T06:35:39;98454.38;;;24.23;52.85
33163;BME280;29282;45.656;11.302;2022-09-02T06:38:05;98447.88;;;24.34;52.05
33163;BME280;29282;45.656;11.302;2022-09-02T06:40:31;98452.47;;;24.27;53.25
33163;BME280;29282;45.656;11.302;2022-09-02T06:42:57;98450.06;;;24.25;52.92
33163;BME280;29282;45.656;11.302;2022-09-02T06:45:23;98459.19;;;24.26;53.31
33163;BME280;29282;45.656;11.302;2022-09-02T06:47:49;98461.94;;;24.26;53.17
33163;BME280;29282;45.656;11.302;2022-09-02T06:50:15;98455.63;;;24.25;53.21
33163;BME280;29282;45.656;11.302;2022-09-02T06:52:41;98468.28;;;24.26;53.19
33163;BME280;29282;45.656;11.302;2022-09-02T06:55:07;98466.31;;;24.27;53.32
33163;BME280;29282;45.656;11.302;2022-09-02T06:57:32;98467.59;;;24.33;52.56
33163;BME280;29282;45.656;11.302;2022-09-02T06:59:58;98465.69;;;24.37;52.65
33163;BME280;29282;45.656;11.302;2022-09-02T07:02:23;98459.22;;;24.29;53.35
33163;BME280;29282;45.656;11.302;2022-09-02T07:04:49;98464.78;;;24.29;53.38
33163;BME280;29282;45.656;11.302;2022-09-02T07:07:37;98460.41;;;24.28;53.40
33163;BME280;29282;45.656;11.302;2022-09-02T07:10:04;98456.84;;;24.28;53.51
33163;BME280;29282;45.656;11.302;2022-09-02T07:12:30;98457.66;;;24.28;53.61
33163;BME280;29282;45.656;11.302;2022-09-02T07:14:56;98454.88;;;24.28;53.41
33163;BME280;29282;45.656;11.302;2022-09-02T07:17:24;98456.53;;;24.33;53.42
33163;BME280;29282;45.656;11.302;2022-09-02T07:19:50;98452.75;;;24.41;52.79
33163;BME280;29282;45.656;11.302;2022-09-02T07:22:16;98450.63;;;24.34;53.71
33163;BME280;29282;45.656;11.302;2022-09-02T07:24:42;98454.94;;;24.32;53.47
33163;BME280;29282;45.656;11.302;2022-09-02T07:27:07;98446.63;;;24.32;53.62
33163;BME280;29282;45.656;11.302;2022-09-02T07:29:34;98449.75;;;24.30;53.53
33163;BME280;29282;45.656;11.302;2022-09-02T07:31:59;98446.19;;;24.30;53.83
33163;BME280;29282;45.656;11.302;2022-09-02T07:34:26;98451.72;;;24.30;53.86
33163;BME280;29282;45.656;11.302;2022-09-02T07:36:52;98447.41;;;24.32;53.75
33163;BME280;29282;45.656;11.302;2022-09-02T07:39:18;98442.53;;;24.45;52.35
33163;BME280;29282;45.656;11.302;2022-09-02T07:41:50;98441.59;;;24.37;53.52
33163;BME280;29282;45.656;11.302;2022-09-02T07:44:18;98439.91;;;24.33;53.64
33163;BME280;29282;45.656;11.302;2022-09-02T07:46:43;98444.66;;;24.32;53.74
33163;BME280;29282;45.656;11.302;2022-09-02T07:49:10;98443.84;;;24.32;53.86
33163;BME280;29282;45.656;11.302;2022-09-02T07:51:39;98447.81;;;24.31;54.01
33163;BME280;29282;45.656;11.302;2022-09-02T07:54:06;98448.94;;;24.30;53.94
33163;BME280;29282;45.656;11.302;2022-09-02T07:56:32;98446.25;;;24.33;53.68
33163;BME280;29282;45.656;11.302;2022-09-02T07:58:58;98445.56;;;24.40;53.18
33163;BME280;29282;45.656;11.302;2022-09-02T08:01:24;98450.78;;;24.42;53.26
33163;BME280;29282;45.656;11.302;2022-09-02T08:03:50;98451.78;;;24.33;53.55
33163;BME280;29282;45.656;11.302;2022-09-02T08:06:16;98452.16;;;24.32;53.76
33163;BME280;29282;45.656;11.302;2022-09-02T08:08:44;98454.94;;;24.32;54.05
33163;BME280;29282;45.656;11.302;2022-09-02T08:11:10;98460.47;;;24.32;54.01
33163;BME280;29282;45.656;11.302;2022-09-02T08:13:37;98453.34;;;24.31;53.87
33163;BME280;29282;45.656;11.302;2022-09-02T08:16:03;98453.03;;;24.36;53.61
33163;BME280;29282;45.656;11.302;2022-09-02T08:18:29;98455.13;;;24.43;53.08
33163;BME280;29282;45.656;11.302;2022-09-02T08:20:54;98449.19;;;24.41;53.78
33163;BME280;29282;45.656;11.302;2022-09-02T08:23:20;98456.16;;;24.34;53.91
33163;BME280;29282;45.656;11.302;2022-09-02T08:25:46;98461.72;;;24.34;53.87
33163;BME280;29282;45.656;11.302;2022-09-02T08:28:11;98448.59;;;24.31;54.05
33163;BME280;29282;45.656;11.302;2022-09-02T08:30:37;98452.97;;;24.32;53.94
33163;BME280;29282;45.656;11.302;2022-09-02T08:33:03;98456.13;;;24.31;54.04
33163;BME280;29282;45.656;11.302;2022-09-02T08:35:28;98443.13;;;24.35;53.91
33163;BME280;29282;45.656;11.302;2022-09-02T08:37:54;98445.25;;;24.42;53.33
33163;BME280;29282;45.656;11.302;2022-09-02T08:40:30;98438.91;;;24.41;53.77
33163;BME280;29282;45.656;11.302;2022-09-02T08:43:07;98439.91;;;24.33;54.00
33163;BME280;29282;45.656;11.302;2022-09-02T08:45:38;98439.91;;;24.33;53.94
33163;BME280;29282;45.656;11.302;2022-09-02T08:48:21;98441.09;;;24.32;54.03
33163;BME280;29282;45.656;11.302;2022-09-02T08:50:57;98434.75;;;24.31;54.32
33163;BME280;29282;45.656;11.302;2022-09-02T08:55:56;98429.81;;;24.41;53.45
33163;BME280;29282;45.656;11.302;2022-09-02T08:58:27;98432.28;;;24.49;53.24
33163;BME280;29282;45.656;11.302;2022-09-02T09:03:46;98435.22;;;24.37;53.94
33163;BME280;29282;45.656;11.302;2022-09-02T09:06:27;98435.59;;;24.35;54.17
33163;BME280;29282;45.656;11.302;2022-09-02T09:09:05;98431.25;;;24.34;54.26
33163;BME280;29282;45.656;11.302;2022-09-02T09:11:42;98431.25;;;24.34;54.04
33163;BME280;29282;45.656;11.302;2022-09-02T09:14:12;98430.88;;;24.36;54.34
33163;BME280;29282;45.656;11.302;2022-09-02T09:16:47;98425.16;;;24.48;53.13
33163;BME280;29282;45.656;11.302;2022-09-02T09:19:40;98426.66;;;24.42;54.10
33163;BME280;29282;45.656;11.302;2022-09-02T09:22:14;98428.88;;;24.36;54.10
33163;BME280;29282;45.656;11.302;2022-09-02T09:24:46;98427.31;;;24.35;53.96
33163;BME280;29282;45.656;11.302;2022-09-02T09:27:18;98422.94;;;24.34;54.42
33163;BME280;29282;45.656;11.302;2022-09-02T09:29:44;98421.75;;;24.35;54.11
33163;BME280;29282;45.656;11.302;2022-09-02T09:39:59;98420.22;;;24.38;54.23
33163;BME280;29282;45.656;11.302;2022-09-02T09:42:33;98425.31;;;24.36;54.30
33163;BME280;29282;45.656;11.302;2022-09-02T09:44:59;98426.50;;;24.35;54.32
33163;BME280;29282;45.656;11.302;2022-09-02T09:47:25;98420.16;;;24.34;54.12
33163;BME280;29282;45.656;11.302;2022-09-02T09:49:53;98422.16;;;24.34;54.49
33163;BME280;29282;45.656;11.302;2022-09-02T09:52:33;98413.06;;;24.37;54.33
33163;BME280;29282;45.656;11.302;2022-09-02T09:55:19;98412.91;;;24.49;53.10
33163;BME280;29282;45.656;11.302;2022-09-02T09:57:47;98407.69;;;24.44;54.13
33163;BME280;29282;45.656;11.302;2022-09-02T10:02:53;98408.72;;;24.36;54.35
33163;BME280;29282;45.656;11.302;2022-09-02T10:07:58;98409.09;;;24.34;54.51
33163;BME280;29282;45.656;11.302;2022-09-02T10:10:26;98405.53;;;24.34;54.47
33163;BME280;29282;45.656;11.302;2022-09-02T10:12:58;98404.03;;;24.40;53.77
33163;BME280;29282;45.656;11.302;2022-09-02T10:15:48;98401.03;;;24.49;53.50
33163;BME280;29282;45.656;11.302;2022-09-02T10:18:23;98398.88;;;24.38;53.92
33163;BME280;29282;45.656;11.302;2022-09-02T10:21:05;98401.19;;;24.36;54.30
33163;BME280;29282;45.656;11.302;2022-09-02T10:23:43;98392.47;;;24.34;54.05
33163;BME280;29282;45.656;11.302;2022-09-02T10:26:19;98392.88;;;24.36;54.50
33163;BME280;29282;45.656;11.302;2022-09-02T10:32:07;98399.34;;;24.41;54.24
33163;BME280;29282;45.656;11.302;2022-09-02T10:37:25;98389.38;;;24.39;54.30
33163;BME280;29282;45.656;11.302;2022-09-02T10:43:06;98383.44;;;24.37;54.47
33163;BME280;29282;45.656;11.302;2022-09-02T10:56:18;98374.81;;;24.43;54.03
33163;BME280;29282;45.656;11.302;2022-09-02T10:58:57;98367.31;;;24.43;54.01
33163;BME280;29282;45.656;11.302;2022-09-02T11:01:29;98367.69;;;24.42;54.23
33163;BME280;29282;45.656;11.302;2022-09-02T11:06:38;98364.47;;;24.39;54.55
33163;BME280;29282;45.656;11.302;2022-09-02T11:15:04;98359.81;;;24.44;54.36
33163;BME280;29282;45.656;11.302;2022-09-02T11:17:44;98363.34;;;24.41;54.40
33163;BME280;29282;45.656;11.302;2022-09-02T11:25:35;98354.56;;;24.38;54.75
33163;BME280;29282;45.656;11.302;2022-09-02T11:34:08;98353.47;;;24.43;54.56
33163;BME280;29282;45.656;11.302;2022-09-02T11:36:37;98353.47;;;24.43;54.48
33163;BME280;29282;45.656;11.302;2022-09-02T11:41:58;98342.31;;;24.39;54.70
33163;BME280;29282;45.656;11.302;2022-09-02T11:47:48;98338.50;;;24.48;53.94
33163;BME280;29282;45.656;11.302;2022-09-02T11:52:52;98342.81;;;24.45;54.37
33163;BME280;29282;45.656;11.302;2022-09-02T11:55:29;98333.28;;;24.43;54.67
33163;BME280;29282;45.656;11.302;2022-09-02T11:57:56;98327.75;;;24.43;54.72
33163;BME280;29282;45.656;11.302;2022-09-02T12:00:34;98324.56;;;24.41;54.62
33163;BME280;29282;45.656;11.302;2022-09-02T12:13:46;98327.75;;;24.43;54.44
33163;BME280;29282;45.656;11.302;2022-09-02T12:21:28;98319.81;;;24.41;54.84
33163;BME280;29282;45.656;11.302;2022-09-02T12:26:27;98312.19;;;24.61;53.83
33163;BME280;29282;45.656;11.302;2022-09-02T12:31:44;98304.88;;;24.49;55.01
33163;BME280;29282;45.656;11.302;2022-09-02T12:40:21;98287.88;;;24.47;55.71
33163;BME280;29282;45.656;11.302;2022-09-02T12:42:50;98285.63;;;24.60;54.72
33163;BME280;29282;45.656;11.302;2022-09-02T12:45:24;98278.56;;;24.63;54.41
33163;BME280;29282;45.656;11.302;2022-09-02T12:50:50;98268.88;;;24.49;55.38
33163;BME280;29282;45.656;11.302;2022-09-02T12:53:28;98268.88;;;24.49;55.44
33163;BME280;29282;45.656;11.302;2022-09-02T12:58:47;98270.88;;;24.49;55.49
33163;BME280;29282;45.656;11.302;2022-09-02T13:01:39;98262.69;;;24.59;54.03
33163;BME280;29282;45.656;11.302;2022-09-02T13:16:14;98242.81;;;24.50;54.99
33163;BME280;29282;45.656;11.302;2022-09-02T13:27:46;98234.91;;;24.52;54.69
33163;BME280;29282;45.656;11.302;2022-09-02T13:32:56;98229.75;;;24.51;54.79
33163;BME280;29282;45.656;11.302;2022-09-02T13:35:27;98232.56;;;24.54;54.75
33163;BME280;29282;45.656;11.302;2022-09-02T13:37:57;98237.44;;;24.65;53.65
33163;BME280;29282;45.656;11.302;2022-09-02T13:40:31;98236.97;;;24.59;54.62
33163;BME280;29282;45.656;11.302;2022-09-02T13:43:02;98225.00;;;24.51;54.73
33163;BME280;29282;45.656;11.302;2022-09-02T13:45:32;98232.53;;;24.51;54.86
33163;BME280;29282;45.656;11.302;2022-09-02T13:48:01;98224.22;;;24.51;54.81
33163;BME280;29282;45.656;11.302;2022-09-02T13:50:30;98215.91;;;24.51;54.88
33163;BME280;29282;45.656;11.302;2022-09-02T13:53:04;98222.59;;;24.50;55.12
33163;BME280;29282;45.656;11.302;2022-09-02T13:55:32;98225.09;;;24.58;54.32
33163;BME280;29282;45.656;11.302;2022-09-02T13:58:03;98218.84;;;24.65;54.28
33163;BME280;29282;45.656;11.302;2022-09-02T14:00:33;98220.25;;;24.52;55.07
33163;BME280;29282;45.656;11.302;2022-09-02T14:03:10;98222.59;;;24.50;55.15
33163;BME280;29282;45.656;11.302;2022-09-02T14:05:39;98217.06;;;24.50;55.25
33163;BME280;29282;45.656;11.302;2022-09-02T14:08:06;98212.34;;;24.50;54.99
33163;BME280;29282;45.656;11.302;2022-09-02T14:10:36;98223.41;;;24.50;54.98
33163;BME280;29282;45.656;11.302;2022-09-02T14:13:03;98217.16;;;24.57;54.44
33163;BME280;29282;45.656;11.302;2022-09-02T14:15:32;98211.72;;;24.64;54.09
33163;BME280;29282;45.656;11.302;2022-09-02T14:20:33;98220.22;;;24.48;55.05
33163;BME280;29282;45.656;11.302;2022-09-02T14:22:59;98213.09;;;24.47;55.27
33163;BME280;29282;45.656;11.302;2022-09-02T14:25:27;98213.09;;;24.47;55.37
33163;BME280;29282;45.656;11.302;2022-09-02T14:27:57;98201.19;;;24.47;55.42
33163;BME280;29282;45.656;11.302;2022-09-02T14:30:53;98198.53;;;24.54;54.72
33163;BME280;29282;45.656;11.302;2022-09-02T14:35:56;98196.91;;;24.53;54.97
33163;BME280;29282;45.656;11.302;2022-09-02T14:38:23;98190.97;;;24.51;55.38
33163;BME280;29282;45.656;11.302;2022-09-02T14:40:58;98188.97;;;24.48;55.37
33163;BME280;29282;45.656;11.302;2022-09-02T14:43:24;98188.97;;;24.48;55.34
33163;BME280;29282;45.656;11.302;2022-09-02T14:45:50;98186.97;;;24.48;55.40
33163;BME280;29282;45.656;11.302;2022-09-02T14:48:24;98175.56;;;24.53;54.88
33163;BME280;29282;45.656;11.302;2022-09-02T14:50:59;98182.38;;;24.63;54.54
33163;BME280;29282;45.656;11.302;2022-09-02T14:53:27;98181.47;;;24.52;55.31
33163;BME280;29282;45.656;11.302;2022-09-02T14:55:54;98168.03;;;24.50;55.27
33163;BME280;29282;45.656;11.302;2022-09-02T14:58:22;98174.34;;;24.51;55.32
33163;BME280;29282;45.656;11.302;2022-09-02T15:00:49;98165.25;;;24.50;55.34
33163;BME280;29282;45.656;11.302;2022-09-02T15:03:20;98167.22;;;24.50;55.42
33163;BME280;29282;45.656;11.302;2022-09-02T15:05:47;98166.88;;;24.55;54.87